Sacramento, California
Traffic Map
Current Weather Conditions
Sacramento, California
Clear
Clear
41°
Feels Like: 41°
Wind Chill: 41° Ceiling: Unl
Heat Index: 41° Visibility: 7mi
Dew Point: 41° Wind: 0mph
Humidity: 100% Direction: ° ()
Pressure: 30.35in Gusts: 0mph
Raw Report DataKSAC 111653Z 00000KT 7SM CLR 05/05 A3035 RMK AO2 SLP276 T00500050
Traffic Incident Summary
Active as of:
Severity:
Category:
InformationThere was an issue retrieving the traffic information for this location. Please try a different location or try again shortly.
Advertisements